sensor_id;sensor_type;location;lat;lon;timestamp;pressure;altitude;pressure_sealevel;temperature;humidity
18533;BME280;9396;51.510;11.934;2024-01-15T00:00:51;98725.09;;;1.12;100.00
18533;BME280;9396;51.510;11.934;2024-01-15T00:03:18;98707.44;;;1.14;100.00
18533;BME280;9396;51.510;11.934;2024-01-15T00:05:46;98701.53;;;1.12;100.00
18533;BME280;9396;51.510;11.934;2024-01-15T00:08:12;98705.53;;;1.16;100.00
18533;BME280;9396;51.510;11.934;2024-01-15T00:10:39;98709.63;;;0.99;100.00
18533;BME280;9396;51.510;11.934;2024-01-15T00:13:06;98709.06;;;0.95;100.00
18533;BME280;9396;51.510;11.934;2024-01-15T00:15:33;98696.13;;;0.94;100.00
18533;BME280;9396;51.510;11.934;2024-01-15T00:17:59;98691.97;;;0.91;100.00
18533;BME280;9396;51.510;11.934;2024-01-15T00:20:26;98691.59;;;0.96;100.00
18533;BME280;9396;51.510;11.934;2024-01-15T00:22:54;98687.03;;;0.98;100.00
18533;BME280;9396;51.510;11.934;2024-01-15T00:25:21;98680.16;;;0.97;100.00
18533;BME280;9396;51.510;11.934;2024-01-15T00:27:48;98667.63;;;1.00;100.00
18533;BME280;9396;51.510;11.934;2024-01-15T00:30:14;98675.59;;;0.99;100.00
18533;BME280;9396;51.510;11.934;2024-01-15T00:32:41;98669.25;;;1.01;100.00
18533;BME280;9396;51.510;11.934;2024-01-15T00:35:08;98670.78;;;1.04;100.00
18533;BME280;9396;51.510;11.934;2024-01-15T00:37:35;98671.63;;;1.04;100.00
18533;BME280;9396;51.510;11.934;2024-01-15T00:40:04;98677.94;;;1.21;100.00
18533;BME280;9396;51.510;11.934;2024-01-15T00:42:31;98645.31;;;1.16;100.00
18533;BME280;9396;51.510;11.934;2024-01-15T00:44:57;98657.16;;;1.10;100.00
18533;BME280;9396;51.510;11.934;2024-01-15T00:47:24;98665.97;;;1.09;100.00
18533;BME280;9396;51.510;11.934;2024-01-15T00:49:51;98670.25;;;1.10;100.00
18533;BME280;9396;51.510;11.934;2024-01-15T00:52:17;98662.53;;;1.08;100.00
18533;BME280;9396;51.510;11.934;2024-01-15T00:54:44;98656.47;;;1.08;100.00
18533;BME280;9396;51.510;11.934;2024-01-15T00:57:12;98659.47;;;1.03;100.00
18533;BME280;9396;51.510;11.934;2024-01-15T00:59:39;98647.22;;;1.04;100.00
18533;BME280;9396;51.510;11.934;2024-01-15T01:02:05;98649.28;;;1.00;100.00
18533;BME280;9396;51.510;11.934;2024-01-15T01:04:32;98640.75;;;0.98;100.00
18533;BME280;9396;51.510;11.934;2024-01-15T01:06:59;98658.69;;;1.03;100.00
18533;BME280;9396;51.510;11.934;2024-01-15T01:09:25;98655.91;;;1.04;100.00
18533;BME280;9396;51.510;11.934;2024-01-15T01:11:54;98653.44;;;1.03;100.00
18533;BME280;9396;51.510;11.934;2024-01-15T01:14:22;98646.13;;;1.06;100.00
18533;BME280;9396;51.510;11.934;2024-01-15T01:16:49;98651.09;;;1.09;100.00
18533;BME280;9396;51.510;11.934;2024-01-15T01:19:15;98641.03;;;1.05;100.00
18533;BME280;9396;51.510;11.934;2024-01-15T01:21:42;98652.06;;;0.99;100.00
18533;BME280;9396;51.510;11.934;2024-01-15T01:24:09;98658.66;;;0.93;100.00
18533;BME280;9396;51.510;11.934;2024-01-15T01:26:35;98654.94;;;0.96;100.00
18533;BME280;9396;51.510;11.934;2024-01-15T01:29:02;98657.13;;;0.91;100.00
18533;BME280;9396;51.510;11.934;2024-01-15T01:31:30;98644.31;;;0.88;100.00
18533;BME280;9396;51.510;11.934;2024-01-15T01:33:56;98634.00;;;0.86;100.00
18533;BME280;9396;51.510;11.934;2024-01-15T01:36:23;98646.28;;;0.95;100.00
18533;BME280;9396;51.510;11.934;2024-01-15T01:38:50;98642.28;;;1.01;100.00
18533;BME280;9396;51.510;11.934;2024-01-15T01:41:17;98640.22;;;0.85;100.00
18533;BME280;9396;51.510;11.934;2024-01-15T01:43:44;98642.38;;;0.80;100.00
18533;BME280;9396;51.510;11.934;2024-01-15T01:46:10;98615.97;;;0.83;100.00
18533;BME280;9396;51.510;11.934;2024-01-15T01:48:39;98629.44;;;0.79;100.00
18533;BME280;9396;51.510;11.934;2024-01-15T01:51:06;98633.19;;;0.76;100.00
18533;BME280;9396;51.510;11.934;2024-01-15T01:53:34;98623.78;;;0.74;100.00
18533;BME280;9396;51.510;11.934;2024-01-15T01:56:03;98621.31;;;0.72;100.00
18533;BME280;9396;51.510;11.934;2024-01-15T01:58:31;98611.69;;;0.73;100.00
18533;BME280;9396;51.510;11.934;2024-01-15T02:00:59;98622.81;;;0.75;100.00
18533;BME280;9396;51.510;11.934;2024-01-15T02:03:26;98620.50;;;0.81;100.00
18533;BME280;9396;51.510;11.934;2024-01-15T02:05:55;98626.69;;;0.80;100.00
18533;BME280;9396;51.510;11.934;2024-01-15T02:08:22;98630.28;;;0.79;100.00
18533;BME280;9396;51.510;11.934;2024-01-15T02:10:49;98623.50;;;0.77;100.00
18533;BME280;9396;51.510;11.934;2024-01-15T02:13:15;98624.47;;;0.66;100.00
18533;BME280;9396;51.510;11.934;2024-01-15T02:15:42;98628.06;;;0.65;100.00
18533;BME280;9396;51.510;11.934;2024-01-15T02:18:08;98625.03;;;0.60;100.00
18533;BME280;9396;51.510;11.934;2024-01-15T02:20:35;98634.78;;;0.58;100.00
18533;BME280;9396;51.510;11.934;2024-01-15T02:23:08;98631.19;;;0.59;100.00
18533;BME280;9396;51.510;11.934;2024-01-15T02:25:37;98626.38;;;0.64;100.00
18533;BME280;9396;51.510;11.934;2024-01-15T02:28:04;98623.91;;;0.63;100.00
18533;BME280;9396;51.510;11.934;2024-01-15T02:30:31;98621.16;;;0.64;100.00
18533;BME280;9396;51.510;11.934;2024-01-15T02:32:59;98618.97;;;0.60;100.00
18533;BME280;9396;51.510;11.934;2024-01-15T02:35:25;98628.59;;;0.59;100.00
18533;BME280;9396;51.510;11.934;2024-01-15T02:37:52;98638.50;;;0.56;100.00
18533;BME280;9396;51.510;11.934;2024-01-15T02:40:20;98616.50;;;0.58;100.00
18533;BME280;9396;51.510;11.934;2024-01-15T02:42:47;98623.78;;;0.55;100.00
18533;BME280;9396;51.510;11.934;2024-01-15T02:45:13;98622.81;;;0.56;100.00
18533;BME280;9396;51.510;11.934;2024-01-15T02:47:40;98626.53;;;0.53;100.00
18533;BME280;9396;51.510;11.934;2024-01-15T02:50:07;98622.53;;;0.59;100.00
18533;BME280;9396;51.510;11.934;2024-01-15T02:52:33;98634.47;;;0.52;100.00
18533;BME280;9396;51.510;11.934;2024-01-15T02:55:00;98621.97;;;0.55;100.00
18533;BME280;9396;51.510;11.934;2024-01-15T02:57:28;98623.63;;;0.56;100.00
18533;BME280;9396;51.510;11.934;2024-01-15T02:59:55;98617.84;;;0.53;100.00
18533;BME280;9396;51.510;11.934;2024-01-15T03:02:22;98620.84;;;0.48;100.00
18533;BME280;9396;51.510;11.934;2024-01-15T03:04:48;98631.22;;;0.50;100.00
18533;BME280;9396;51.510;11.934;2024-01-15T03:07:15;98625.53;;;0.45;100.00
18533;BME280;9396;51.510;11.934;2024-01-15T03:09:42;98635.00;;;0.36;100.00
18533;BME280;9396;51.510;11.934;2024-01-15T03:12:08;98627.72;;;0.30;100.00
18533;BME280;9396;51.510;11.934;2024-01-15T03:14:37;98638.56;;;0.26;100.00
18533;BME280;9396;51.510;11.934;2024-01-15T03:17:04;98631.13;;;0.21;100.00
18533;BME280;9396;51.510;11.934;2024-01-15T03:19:34;98635.78;;;0.18;100.00
18533;BME280;9396;51.510;11.934;2024-01-15T03:22:01;98630.09;;;0.13;100.00
18533;BME280;9396;51.510;11.934;2024-01-15T03:24:28;98635.91;;;0.16;100.00
18533;BME280;9396;51.510;11.934;2024-01-15T03:26:55;98621.47;;;0.12;100.00
18533;BME280;9396;51.510;11.934;2024-01-15T03:29:22;98635.31;;;0.03;100.00
18533;BME280;9396;51.510;11.934;2024-01-15T03:31:50;98626.00;;;0.10;100.00
18533;BME280;9396;51.510;11.934;2024-01-15T03:34:16;98633.91;;;-0.01;100.00
18533;BME280;9396;51.510;11.934;2024-01-15T03:36:43;98619.78;;;0.11;100.00
18533;BME280;9396;51.510;11.934;2024-01-15T03:39:10;98612.94;;;0.20;100.00
18533;BME280;9396;51.510;11.934;2024-01-15T03:41:36;98618.28;;;0.09;100.00
18533;BME280;9396;51.510;11.934;2024-01-15T03:44:03;98619.94;;;0.10;100.00
18533;BME280;9396;51.510;11.934;2024-01-15T03:46:30;98612.13;;;0.19;100.00
18533;BME280;9396;51.510;11.934;2024-01-15T03:48:58;98618.06;;;0.21;100.00
18533;BME280;9396;51.510;11.934;2024-01-15T03:51:24;98627.53;;;0.22;100.00
18533;BME280;9396;51.510;11.934;2024-01-15T03:53:51;98631.28;;;0.29;100.00
18533;BME280;9396;51.510;11.934;2024-01-15T03:56:18;98650.13;;;0.33;100.00
18533;BME280;9396;51.510;11.934;2024-01-15T03:58:44;98634.31;;;0.34;100.00
18533;BME280;9396;51.510;11.934;2024-01-15T04:01:11;98644.09;;;0.42;100.00
18533;BME280;9396;51.510;11.934;2024-01-15T04:03:38;98621.66;;;0.39;100.00
18533;BME280;9396;51.510;11.934;2024-01-15T04:06:06;98617.16;;;0.51;100.00
18533;BME280;9396;51.510;11.934;2024-01-15T04:08:32;98618.94;;;0.50;100.00
18533;BME280;9396;51.510;11.934;2024-01-15T04:10:59;98618.78;;;0.52;100.00
18533;BME280;9396;51.510;11.934;2024-01-15T04:13:27;98617.84;;;0.53;100.00
18533;BME280;9396;51.510;11.934;2024-01-15T04:15:53;98614.69;;;0.49;100.00
18533;BME280;9396;51.510;11.934;2024-01-15T04:18:20;98613.69;;;0.50;100.00
18533;BME280;9396;51.510;11.934;2024-01-15T04:20:47;98600.38;;;0.53;100.00
18533;BME280;9396;51.510;11.934;2024-01-15T04:23:15;98598.03;;;0.60;100.00
18533;BME280;9396;51.510;11.934;2024-01-15T04:25:41;98603.28;;;0.60;100.00
18533;BME280;9396;51.510;11.934;2024-01-15T04:28:08;98610.59;;;0.66;100.00
18533;BME280;9396;51.510;11.934;2024-01-15T04:30:35;98603.81;;;0.63;100.00
18533;BME280;9396;51.510;11.934;2024-01-15T04:33:02;98606.28;;;0.55;100.00
18533;BME280;9396;51.510;11.934;2024-01-15T04:35:29;98598.84;;;0.51;100.00
18533;BME280;9396;51.510;11.934;2024-01-15T04:37:56;98602.16;;;0.53;100.00
18533;BME280;9396;51.510;11.934;2024-01-15T04:40:24;98614.81;;;0.57;100.00
18533;BME280;9396;51.510;11.934;2024-01-15T04:42:53;98610.41;;;0.58;100.00
18533;BME280;9396;51.510;11.934;2024-01-15T04:45:19;98604.91;;;0.61;100.00
18533;BME280;9396;51.510;11.934;2024-01-15T04:47:48;98591.13;;;0.59;100.00
18533;BME280;9396;51.510;11.934;2024-01-15T04:50:14;98592.13;;;0.58;100.00
18533;BME280;9396;51.510;11.934;2024-01-15T04:52:41;98594.44;;;0.61;100.00
18533;BME280;9396;51.510;11.934;2024-01-15T04:55:08;98587.59;;;0.69;100.00
18533;BME280;9396;51.510;11.934;2024-01-15T04:57:36;98580.13;;;0.65;100.00
18533;BME280;9396;51.510;11.934;2024-01-15T05:00:03;98580.69;;;0.68;100.00
18533;BME280;9396;51.510;11.934;2024-01-15T05:02:30;98604.38;;;0.67;100.00
18533;BME280;9396;51.510;11.934;2024-01-15T05:04:56;98610.84;;;0.63;100.00
18533;BME280;9396;51.510;11.934;2024-01-15T05:07:23;98608.78;;;0.66;100.00
18533;BME280;9396;51.510;11.934;2024-01-15T05:09:50;98593.63;;;0.70;100.00
18533;BME280;9396;51.510;11.934;2024-01-15T05:12:16;98600.38;;;0.63;100.00
18533;BME280;9396;51.510;11.934;2024-01-15T05:14:45;98598.16;;;0.68;100.00
18533;BME280;9396;51.510;11.934;2024-01-15T05:17:11;98606.31;;;0.74;100.00
18533;BME280;9396;51.510;11.934;2024-01-15T05:19:38;98615.66;;;0.77;100.00
18533;BME280;9396;51.510;11.934;2024-01-15T05:22:04;98603.00;;;0.82;100.00
18533;BME280;9396;51.510;11.934;2024-01-15T05:24:31;98595.28;;;0.80;100.00
18533;BME280;9396;51.510;11.934;2024-01-15T05:26:58;98587.31;;;0.91;99.59
18533;BME280;9396;51.510;11.934;2024-01-15T05:29:24;98588.44;;;0.89;99.51
18533;BME280;9396;51.510;11.934;2024-01-15T05:31:53;98601.91;;;0.94;98.80
18533;BME280;9396;51.510;11.934;2024-01-15T05:34:20;98592.53;;;0.82;99.97
18533;BME280;9396;51.510;11.934;2024-01-15T05:36:46;98582.50;;;0.87;99.08
18533;BME280;9396;51.510;11.934;2024-01-15T05:39:14;98569.00;;;0.72;99.87
18533;BME280;9396;51.510;11.934;2024-01-15T05:41:40;98579.31;;;0.74;99.65
18533;BME280;9396;51.510;11.934;2024-01-15T05:44:07;98562.09;;;0.71;99.94
18533;BME280;9396;51.510;11.934;2024-01-15T05:46:33;98568.31;;;0.80;100.00
18533;BME280;9396;51.510;11.934;2024-01-15T05:49:01;98560.59;;;0.88;100.00
18533;BME280;9396;51.510;11.934;2024-01-15T05:51:28;98563.63;;;0.93;99.64
18533;BME280;9396;51.510;11.934;2024-01-15T05:53:55;98575.19;;;0.81;100.00
18533;BME280;9396;51.510;11.934;2024-01-15T05:56:21;98574.50;;;0.79;100.00
18533;BME280;9396;51.510;11.934;2024-01-15T05:58:49;98580.84;;;0.76;100.00
18533;BME280;9396;51.510;11.934;2024-01-15T06:01:16;98585.94;;;0.78;100.00
18533;BME280;9396;51.510;11.934;2024-01-15T06:03:42;98598.31;;;0.76;100.00
18533;BME280;9396;51.510;11.934;2024-01-15T06:06:10;98594.19;;;0.83;100.00
18533;BME280;9396;51.510;11.934;2024-01-15T06:08:37;98593.91;;;0.86;99.39
18533;BME280;9396;51.510;11.934;2024-01-15T06:11:04;98592.28;;;0.85;99.39
18533;BME280;9396;51.510;11.934;2024-01-15T06:13:30;98601.75;;;0.86;99.87
18533;BME280;9396;51.510;11.934;2024-01-15T06:15:57;98596.53;;;0.86;99.57
18533;BME280;9396;51.510;11.934;2024-01-15T06:18:24;98590.34;;;0.87;100.00
18533;BME280;9396;51.510;11.934;2024-01-15T06:20:50;98586.91;;;0.86;100.00
18533;BME280;9396;51.510;11.934;2024-01-15T06:23:18;98579.72;;;0.79;100.00
18533;BME280;9396;51.510;11.934;2024-01-15T06:25:45;98572.16;;;0.66;100.00
18533;BME280;9396;51.510;11.934;2024-01-15T06:28:10;98574.50;;;0.60;100.00
18533;BME280;9396;51.510;11.934;2024-01-15T06:30:37;98571.03;;;0.59;100.00
18533;BME280;9396;51.510;11.934;2024-01-15T06:33:04;98567.34;;;0.62;100.00
18533;BME280;9396;51.510;11.934;2024-01-15T06:35:31;98581.81;;;0.66;100.00
18533;BME280;9396;51.510;11.934;2024-01-15T06:37:59;98576.13;;;0.61;100.00
18533;BME280;9396;51.510;11.934;2024-01-15T06:40:27;98575.88;;;0.64;100.00
18533;BME280;9396;51.510;11.934;2024-01-15T06:42:54;98573.13;;;0.65;100.00
18533;BME280;9396;51.510;11.934;2024-01-15T06:45:20;98565.84;;;0.69;100.00
18533;BME280;9396;51.510;11.934;2024-01-15T06:47:47;98576.28;;;0.69;100.00
18533;BME280;9396;51.510;11.934;2024-01-15T06:50:14;98580.13;;;0.65;100.00
18533;BME280;9396;51.510;11.934;2024-01-15T06:52:40;98582.91;;;0.63;100.00
18533;BME280;9396;51.510;11.934;2024-01-15T06:55:07;98578.75;;;0.61;100.00
18533;BME280;9396;51.510;11.934;2024-01-15T06:57:35;98577.50;;;0.55;100.00
18533;BME280;9396;51.510;11.934;2024-01-15T07:00:02;98592.81;;;0.60;100.00
18533;BME280;9396;51.510;11.934;2024-01-15T07:02:33;98579.31;;;0.55;100.00
18533;BME280;9396;51.510;11.934;2024-01-15T07:04:59;98585.25;;;0.57;100.00
18533;BME280;9396;51.510;11.934;2024-01-15T07:07:26;98598.31;;;0.57;100.00
18533;BME280;9396;51.510;11.934;2024-01-15T07:09:55;98598.31;;;0.57;100.00
18533;BME280;9396;51.510;11.934;2024-01-15T07:12:21;98601.91;;;0.65;100.00
18533;BME280;9396;51.510;11.934;2024-01-15T07:14:49;98594.44;;;0.61;100.00
18533;BME280;9396;51.510;11.934;2024-01-15T07:17:16;98598.72;;;0.62;100.00
18533;BME280;9396;51.510;11.934;2024-01-15T07:19:43;98598.56;;;0.54;100.00
18533;BME280;9396;51.510;11.934;2024-01-15T07:22:09;98597.22;;;0.50;100.00
18533;BME280;9396;51.510;11.934;2024-01-15T07:24:36;98592.81;;;0.60;100.00
18533;BME280;9396;51.510;11.934;2024-01-15T07:27:03;98575.72;;;0.56;100.00
18533;BME280;9396;51.510;11.934;2024-01-15T07:29:30;98584.81;;;0.42;100.00
18533;BME280;9396;51.510;11.934;2024-01-15T07:31:59;98592.50;;;0.44;100.00
18533;BME280;9396;51.510;11.934;2024-01-15T07:34:26;98590.97;;;0.32;100.00
18533;BME280;9396;51.510;11.934;2024-01-15T07:36:52;98586.97;;;0.28;100.00
18533;BME280;9396;51.510;11.934;2024-01-15T07:39:19;98595.22;;;0.33;100.00
18533;BME280;9396;51.510;11.934;2024-01-15T07:41:46;98596.34;;;0.30;100.00
18533;BME280;9396;51.510;11.934;2024-01-15T07:44:12;98604.31;;;0.38;100.00
18533;BME280;9396;51.510;11.934;2024-01-15T07:46:40;98602.44;;;0.50;100.00
18533;BME280;9396;51.510;11.934;2024-01-15T07:49:11;98605.44;;;0.45;100.00
18533;BME280;9396;51.510;11.934;2024-01-15T07:51:38;98605.16;;;0.39;100.00
18533;BME280;9396;51.510;11.934;2024-01-15T07:54:06;98598.00;;;0.41;100.00
18533;BME280;9396;51.510;11.934;2024-01-15T07:56:32;98598.81;;;0.41;100.00
18533;BME280;9396;51.510;11.934;2024-01-15T07:58:59;98600.75;;;0.39;100.00
18533;BME280;9396;51.510;11.934;2024-01-15T08:01:25;98598.13;;;0.39;100.00
18533;BME280;9396;51.510;11.934;2024-01-15T08:03:52;98594.97;;;0.45;100.00
18533;BME280;9396;51.510;11.934;2024-01-15T08:06:21;98609.59;;;0.48;100.00
18533;BME280;9396;51.510;11.934;2024-01-15T08:08:48;98597.47;;;0.47;100.00
18533;BME280;9396;51.510;11.934;2024-01-15T08:11:15;98601.88;;;0.46;100.00
18533;BME280;9396;51.510;11.934;2024-01-15T08:13:41;98605.72;;;0.52;100.00
18533;BME280;9396;51.510;11.934;2024-01-15T08:16:08;98602.56;;;0.58;100.00
18533;BME280;9396;51.510;11.934;2024-01-15T08:18:35;98600.25;;;0.55;100.00
18533;BME280;9396;51.510;11.934;2024-01-15T08:21:01;98602.72;;;0.56;100.00
18533;BME280;9396;51.510;11.934;2024-01-15T08:23:29;98614.53;;;0.51;100.00
18533;BME280;9396;51.510;11.934;2024-01-15T08:25:56;98612.91;;;0.50;100.00
18533;BME280;9396;51.510;11.934;2024-01-15T08:28:23;98599.28;;;0.46;100.00
18533;BME280;9396;51.510;11.934;2024-01-15T08:30:50;98599.69;;;0.61;100.00
18533;BME280;9396;51.510;11.934;2024-01-15T08:33:16;98609.06;;;0.63;100.00
18533;BME280;9396;51.510;11.934;2024-01-15T08:35:43;98607.69;;;0.69;100.00
18533;BME280;9396;51.510;11.934;2024-01-15T08:38:10;98600.94;;;0.66;100.00
18533;BME280;9396;51.510;11.934;2024-01-15T08:40:38;98591.00;;;0.70;100.00
18533;BME280;9396;51.510;11.934;2024-01-15T08:43:05;98611.41;;;0.76;100.00
18533;BME280;9396;51.510;11.934;2024-01-15T08:45:32;98586.09;;;0.76;100.00
18533;BME280;9396;51.510;11.934;2024-01-15T08:47:59;98600.53;;;0.90;100.00
18533;BME280;9396;51.510;11.934;2024-01-15T08:50:26;98606.06;;;0.87;100.00
18533;BME280;9396;51.510;11.934;2024-01-15T08:52:53;98600.53;;;0.80;100.00
18533;BME280;9396;51.510;11.934;2024-01-15T08:55:19;98608.78;;;0.76;100.00
18533;BME280;9396;51.510;11.934;2024-01-15T08:57:49;98598.31;;;0.95;100.00
18533;BME280;9396;51.510;11.934;2024-01-15T09:00:16;98593.63;;;0.98;100.00
18533;BME280;9396;51.510;11.934;2024-01-15T09:02:44;98584.81;;;0.80;100.00
18533;BME280;9396;51.510;11.934;2024-01-15T09:05:10;98579.59;;;0.90;100.00
18533;BME280;9396;51.510;11.934;2024-01-15T09:07:37;98594.06;;;0.94;100.00
18533;BME280;9396;51.510;11.934;2024-01-15T09:10:04;98588.69;;;0.95;100.00
18533;BME280;9396;51.510;11.934;2024-01-15T09:12:31;98594.75;;;0.96;100.00
18533;BME280;9396;51.510;11.934;2024-01-15T09:15:00;98586.91;;;0.96;100.00
18533;BME280;9396;51.510;11.934;2024-01-15T09:17:29;98584.28;;;0.96;100.00
18533;BME280;9396;51.510;11.934;2024-01-15T09:19:56;98585.81;;;0.89;100.00
18533;BME280;9396;51.510;11.934;2024-01-15T09:22:23;98587.16;;;0.93;100.00
18533;BME280;9396;51.510;11.934;2024-01-15T09:24:49;98591.16;;;0.97;100.00
18533;BME280;9396;51.510;11.934;2024-01-15T09:27:16;98595.13;;;1.10;100.00
18533;BME280;9396;51.510;11.934;2024-01-15T09:29:42;98597.75;;;1.20;100.00
18533;BME280;9396;51.510;11.934;2024-01-15T09:32:12;98607.41;;;1.29;100.00
18533;BME280;9396;51.510;11.934;2024-01-15T09:34:39;98611.94;;;1.27;100.00
18533;BME280;9396;51.510;11.934;2024-01-15T09:37:06;98609.31;;;1.37;100.00
18533;BME280;9396;51.510;11.934;2024-01-15T09:39:33;98608.78;;;1.33;100.00
18533;BME280;9396;51.510;11.934;2024-01-15T09:42:00;98619.94;;;1.35;100.00
18533;BME280;9396;51.510;11.934;2024-01-15T09:44:28;98622.97;;;1.31;100.00
18533;BME280;9396;51.510;11.934;2024-01-15T09:46:55;98605.44;;;1.41;100.00
18533;BME280;9396;51.510;11.934;2024-01-15T09:49:24;98613.03;;;1.44;100.00
18533;BME280;9396;51.510;11.934;2024-01-15T09:51:50;98603.78;;;1.40;100.00
18533;BME280;9396;51.510;11.934;2024-01-15T09:54:17;98596.78;;;1.40;100.00
18533;BME280;9396;51.510;11.934;2024-01-15T09:56:45;98606.81;;;1.45;100.00
18533;BME280;9396;51.510;11.934;2024-01-15T09:59:14;98600.09;;;1.42;100.00
18533;BME280;9396;51.510;11.934;2024-01-15T10:01:42;98585.59;;;1.38;100.00
18533;BME280;9396;51.510;11.934;2024-01-15T10:04:10;98607.91;;;1.52;99.69
18533;BME280;9396;51.510;11.934;2024-01-15T10:06:39;98592.63;;;1.47;99.64
18533;BME280;9396;51.510;11.934;2024-01-15T10:09:08;98600.19;;;1.50;99.70
18533;BME280;9396;51.510;11.934;2024-01-15T10:11:34;98597.03;;;1.47;99.12
18533;BME280;9396;51.510;11.934;2024-01-15T10:14:02;98592.63;;;1.47;100.00
18533;BME280;9396;51.510;11.934;2024-01-15T10:16:30;98593.72;;;1.54;99.55
18533;BME280;9396;51.510;11.934;2024-01-15T10:18:57;98592.78;;;1.46;99.36
18533;BME280;9396;51.510;11.934;2024-01-15T10:21:24;98587.00;;;1.42;100.00
18533;BME280;9396;51.510;11.934;2024-01-15T10:23:53;98587.25;;;1.49;100.00
18533;BME280;9396;51.510;11.934;2024-01-15T10:26:24;98582.84;;;1.49;100.00
18533;BME280;9396;51.510;11.934;2024-01-15T10:28:51;98586.53;;;1.56;99.49
18533;BME280;9396;51.510;11.934;2024-01-15T10:31:18;98586.53;;;1.56;100.00
18533;BME280;9396;51.510;11.934;2024-01-15T10:33:47;98592.78;;;1.46;100.00
18533;BME280;9396;51.510;11.934;2024-01-15T10:36:14;98589.72;;;1.50;100.00
18533;BME280;9396;51.510;11.934;2024-01-15T10:38:43;98575.06;;;1.57;100.00
18533;BME280;9396;51.510;11.934;2024-01-15T10:41:11;98577.28;;;1.62;100.00
18533;BME280;9396;51.510;11.934;2024-01-15T10:43:38;98584.31;;;1.61;100.00
18533;BME280;9396;51.510;11.934;2024-01-15T10:46:06;98566.00;;;1.52;100.00
18533;BME280;9396;51.510;11.934;2024-01-15T10:48:33;98582.38;;;1.63;100.00
18533;BME280;9396;51.510;11.934;2024-01-15T10:51:01;98577.53;;;1.68;100.00
18533;BME280;9396;51.510;11.934;2024-01-15T10:53:34;98574.47;;;1.73;100.00
18533;BME280;9396;51.510;11.934;2024-01-15T10:56:02;98573.28;;;1.67;100.00
18533;BME280;9396;51.510;11.934;2024-01-15T10:58:33;98572.59;;;1.65;100.00
18533;BME280;9396;51.510;11.934;2024-01-15T11:01:00;98580.56;;;1.64;100.00
18533;BME280;9396;51.510;11.934;2024-01-15T11:03:27;98575.19;;;1.65;100.00
18533;BME280;9396;51.510;11.934;2024-01-15T11:05:54;98582.78;;;1.68;100.00
18533;BME280;9396;51.510;11.934;2024-01-15T11:08:20;98576.66;;;1.77;100.00
18533;BME280;9396;51.510;11.934;2024-01-15T11:10:50;98576.97;;;1.74;100.00
18533;BME280;9396;51.510;11.934;2024-01-15T11:13:20;98579.16;;;1.79;100.00
18533;BME280;9396;51.510;11.934;2024-01-15T11:16:02;98583.94;;;1.83;100.00
18533;BME280;9396;51.510;11.934;2024-01-15T11:18:30;98583.47;;;1.70;100.00
18533;BME280;9396;51.510;11.934;2024-01-15T11:21:22;98588.56;;;1.72;99.94
18533;BME280;9396;51.510;11.934;2024-01-15T11:23:52;98579.75;;;1.63;100.00
18533;BME280;9396;51.510;11.934;2024-01-15T11:26:33;98586.09;;;1.61;100.00
18533;BME280;9396;51.510;11.934;2024-01-15T11:29:02;98577.53;;;1.68;100.00
18533;BME280;9396;51.510;11.934;2024-01-15T11:31:58;98578.78;;;1.64;100.00
18533;BME280;9396;51.510;11.934;2024-01-15T11:34:57;98575.31;;;1.73;100.00
18533;BME280;9396;51.510;11.934;2024-01-15T11:39:55;98567.56;;;1.81;100.00
18533;BME280;9396;51.510;11.934;2024-01-15T11:42:22;98568.63;;;1.88;100.00
18533;BME280;9396;51.510;11.934;2024-01-15T11:44:49;98558.22;;;1.96;100.00
18533;BME280;9396;51.510;11.934;2024-01-15T11:47:36;98569.56;;;1.97;100.00
18533;BME280;9396;51.510;11.934;2024-01-15T11:50:07;98574.13;;;1.95;100.00
18533;BME280;9396;51.510;11.934;2024-01-15T11:52:35;98560.03;;;1.96;100.00
18533;BME280;9396;51.510;11.934;2024-01-15T11:55:10;98574.50;;;2.00;100.00
18533;BME280;9396;51.510;11.934;2024-01-15T11:57:41;98565.25;;;1.96;100.00
18533;BME280;9396;51.510;11.934;2024-01-15T12:00:09;98573.72;;;1.90;100.00
18533;BME280;9396;51.510;11.934;2024-01-15T12:02:39;98561.84;;;1.95;100.00
18533;BME280;9396;51.510;11.934;2024-01-15T12:05:07;98574.03;;;1.87;100.00
18533;BME280;9396;51.510;11.934;2024-01-15T12:07:34;98570.44;;;1.78;100.00
18533;BME280;9396;51.510;11.934;2024-01-15T12:10:01;98577.59;;;1.86;100.00
18533;BME280;9396;51.510;11.934;2024-01-15T12:12:36;98572.50;;;1.84;100.00
18533;BME280;9396;51.510;11.934;2024-01-15T12:15:06;98566.53;;;1.92;100.00
18533;BME280;9396;51.510;11.934;2024-01-15T12:17:34;98557.66;;;2.02;100.00
18533;BME280;9396;51.510;11.934;2024-01-15T12:20:03;98561.84;;;1.95;100.00
18533;BME280;9396;51.510;11.934;2024-01-15T12:22:30;98563.09;;;1.91;100.00
18533;BME280;9396;51.510;11.934;2024-01-15T12:24:56;98563.47;;;1.96;100.00
18533;BME280;9396;51.510;11.934;2024-01-15T12:27:24;98563.47;;;1.96;100.00
18533;BME280;9396;51.510;11.934;2024-01-15T12:29:52;98565.16;;;1.97;100.00
18533;BME280;9396;51.510;11.934;2024-01-15T12:32:19;98563.47;;;1.96;100.00
18533;BME280;9396;51.510;11.934;2024-01-15T12:34:46;98567.63;;;1.99;100.00
18533;BME280;9396;51.510;11.934;2024-01-15T12:37:14;98565.16;;;1.97;100.00
18533;BME280;9396;51.510;11.934;2024-01-15T12:39:42;98567.50;;;1.91;100.00
18533;BME280;9396;51.510;11.934;2024-01-15T12:42:09;98561.47;;;1.90;100.00
18533;BME280;9396;51.510;11.934;2024-01-15T12:44:36;98568.03;;;1.94;100.00
18533;BME280;9396;51.510;11.934;2024-01-15T12:47:03;98574.09;;;2.04;100.00
18533;BME280;9396;51.510;11.934;2024-01-15T12:49:30;98567.47;;;2.00;100.00
18533;BME280;9396;51.510;11.934;2024-01-15T12:51:57;98570.09;;;2.00;100.00
18533;BME280;9396;51.510;11.934;2024-01-15T12:54:26;98574.41;;;1.92;100.00
18533;BME280;9396;51.510;11.934;2024-01-15T12:56:52;98578.53;;;1.94;100.00
18533;BME280;9396;51.510;11.934;2024-01-15T12:59:19;98570.94;;;2.01;100.00
18533;BME280;9396;51.510;11.934;2024-01-15T13:01:46;98576.59;;;1.96;100.00
18533;BME280;9396;51.510;11.934;2024-01-15T13:04:21;98573.78;;;2.07;100.00